Time;durP1;ratioP1;P1;durP2;ratioP2;P2;SDS_P1;SDS_P2;PMS_P1;PMS_P2;Temp;Humidity;BMP_temperature;BMP_pressure;BME280_temperature;BME280_humidity;BME280_pressure;Samples;Min_cycle;Max_cycle;Signal;HPM_P1;HPM_P2
2022/10/30 00:01:45;;;;;;;31.60;15.53;;;16.50;99.90;;;;;;5046580;28;20476;-68
2022/10/30 00:04:13;;;;;;;26.57;16.87;;;16.50;99.90;;;;;;5047865;28;20456;-68
2022/10/30 00:06:39;;;;;;;25.03;14.97;;;16.40;99.90;;;;;;5047159;28;20808;-68
2022/10/30 00:09:06;;;;;;;23.03;15.70;;;16.40;99.90;;;;;;5046963;28;20460;-68
2022/10/30 00:11:34;;;;;;;21.87;16.53;;;16.30;99.90;;;;;;5046818;28;20867;-68
2022/10/30 00:14:02;;;;;;;37.17;18.07;;;16.20;99.90;;;;;;5046419;28;20499;-68
2022/10/30 00:16:29;;;;;;;25.73;15.50;;;16.10;99.90;;;;;;5047669;28;20958;-69
2022/10/30 00:18:56;;;;;;;23.33;16.10;;;16.10;99.90;;;;;;5046318;28;20823;-69
2022/10/30 00:21:23;;;;;;;23.03;15.40;;;16.10;99.90;;;;;;5047378;28;20460;-69
2022/10/30 00:23:52;;;;;;;23.00;16.30;;;16.00;99.90;;;;;;5046036;28;20464;-69
2022/10/30 00:26:20;;;;;;;28.30;16.33;;;15.90;99.90;;;;;;5044223;28;20462;-68
2022/10/30 00:28:51;;;;;;;26.43;16.00;;;15.90;99.90;;;;;;5045680;28;20488;-69
2022/10/30 00:31:18;;;;;;;21.97;17.13;;;15.80;99.90;;;;;;5043549;28;20492;-68
2022/10/30 00:33:49;;;;;;;27.03;17.37;;;15.70;99.90;;;;;;5046328;28;21010;-69
2022/10/30 00:36:15;;;;;;;18.90;15.60;;;15.70;99.90;;;;;;5045088;28;20477;-68
2022/10/30 00:38:43;;;;;;;29.87;15.67;;;15.60;99.90;;;;;;5045431;28;20460;-68
2022/10/30 00:41:16;;;;;;;21.80;15.67;;;15.50;99.90;;;;;;5042843;28;20456;-70
2022/10/30 00:43:44;;;;;;;15.77;14.33;;;15.50;99.90;;;;;;5041892;28;20517;-68
2022/10/30 00:46:20;;;;;;;25.03;16.40;;;15.50;99.90;;;;;;5046560;28;21065;-69
2022/10/30 00:48:53;;;;;;;22.63;16.00;;;15.50;99.90;;;;;;5046205;28;20463;-68
2022/10/30 00:51:20;;;;;;;23.50;15.40;;;15.30;99.90;;;;;;5043384;28;20896;-68
2022/10/30 00:53:48;;;;;;;27.80;16.80;;;15.20;99.90;;;;;;5045801;28;21008;-70
2022/10/30 00:56:18;;;;;;;23.63;14.67;;;15.10;99.90;;;;;;5046750;28;20456;-68
2022/10/30 00:58:49;;;;;;;16.70;15.13;;;15.00;99.90;;;;;;5047769;28;20490;-70
2022/10/30 01:01:22;;;;;;;20.87;16.10;;;14.90;99.90;;;;;;5044468;28;20463;-68
2022/10/30 01:03:52;;;;;;;25.30;15.77;;;14.80;99.90;;;;;;5045223;28;20472;-69
2022/10/30 01:06:19;;;;;;;27.70;16.30;;;14.80;99.90;;;;;;5046578;28;20468;-68
2022/10/30 01:08:47;;;;;;;27.60;15.97;;;14.80;99.90;;;;;;5047706;28;20986;-70
2022/10/30 01:11:13;;;;;;;24.03;15.10;;;14.80;99.90;;;;;;5042479;28;20467;-71
2022/10/30 01:13:41;;;;;;;19.27;15.57;;;14.70;99.90;;;;;;5045930;28;20549;-69
2022/10/30 01:16:31;;;;;;;31.33;14.77;;;14.80;99.90;;;;;;5045882;28;20468;-70
2022/10/30 01:19:04;;;;;;;17.03;15.40;;;14.80;99.90;;;;;;5045654;28;20483;-68
2022/10/30 01:21:44;;;;;;;26.13;15.93;;;14.80;99.90;;;;;;5045526;28;20993;-68
2022/10/30 01:24:26;;;;;;;20.83;15.60;;;14.80;99.90;;;;;;5042457;28;20515;-68
2022/10/30 01:27:00;;;;;;;23.57;15.27;;;14.80;99.90;;;;;;5043869;28;20466;-69
2022/10/30 01:29:37;;;;;;;22.73;14.77;;;14.90;99.90;;;;;;5043442;28;20480;-68
2022/10/30 01:32:18;;;;;;;23.63;14.57;;;14.90;99.90;;;;;;5045812;28;20460;-68
2022/10/30 01:34:55;;;;;;;25.23;14.40;;;14.80;99.90;;;;;;5043697;28;20875;-68
2022/10/30 01:37:32;;;;;;;20.60;15.53;;;14.80;99.90;;;;;;5043338;28;20463;-68
2022/10/30 01:40:04;;;;;;;18.43;14.93;;;14.70;99.90;;;;;;5045257;28;20478;-69
2022/10/30 01:42:47;;;;;;;22.63;15.40;;;14.70;99.90;;;;;;5045226;28;20518;-68
2022/10/30 01:45:17;;;;;;;19.33;16.43;;;14.60;99.90;;;;;;5046670;28;20760;-68
2022/10/30 01:47:56;;;;;;;18.00;15.50;;;14.50;99.90;;;;;;5041529;28;20823;-69
2022/10/30 01:50:32;;;;;;;35.57;17.03;;;14.30;99.90;;;;;;5046253;28;20477;-68
2022/10/30 01:53:08;;;;;;;22.67;15.77;;;14.30;99.90;;;;;;5043849;28;20483;-68
2022/10/30 01:55:42;;;;;;;18.67;15.10;;;14.20;99.90;;;;;;5046267;28;20628;-70
2022/10/30 01:58:17;;;;;;;21.17;15.03;;;14.10;99.90;;;;;;5044491;28;20482;-68
2022/10/30 02:00:46;;;;;;;20.37;15.50;;;14.10;99.90;;;;;;5039752;28;20471;-68
2022/10/30 02:03:15;;;;;;;30.27;14.83;;;14.00;99.90;;;;;;5043351;28;20479;-68
2022/10/30 02:05:45;;;;;;;32.47;15.40;;;14.00;99.90;;;;;;5045422;28;20464;-67
2022/10/30 02:08:13;;;;;;;41.63;15.70;;;14.00;99.90;;;;;;5043830;28;20494;-68
2022/10/30 02:10:42;;;;;;;25.77;14.50;;;14.00;99.90;;;;;;5049752;28;20459;-69
2022/10/30 02:13:09;;;;;;;23.53;16.90;;;13.90;99.90;;;;;;5048666;28;20549;-69
2022/10/30 02:15:36;;;;;;;32.20;16.40;;;13.70;99.90;;;;;;5048299;28;20483;-68
2022/10/30 02:18:03;;;;;;;20.60;16.30;;;13.60;99.90;;;;;;5049210;28;20456;-68
2022/10/30 02:20:32;;;;;;;18.23;14.90;;;13.50;99.90;;;;;;5047728;28;20537;-68
2022/10/30 02:22:59;;;;;;;21.43;15.20;;;13.40;99.90;;;;;;5048795;28;21017;-68
2022/10/30 02:25:26;;;;;;;16.60;15.20;;;13.30;99.90;;;;;;5049459;28;20478;-68
2022/10/30 02:27:53;;;;;;;19.53;15.10;;;13.30;99.90;;;;;;5048389;28;21552;-67
2022/10/30 02:30:20;;;;;;;22.17;16.60;;;13.20;99.90;;;;;;5048001;28;20479;-71
2022/10/30 02:32:48;;;;;;;25.77;15.63;;;13.10;99.90;;;;;;5048953;28;20460;-70
2022/10/30 02:35:18;;;;;;;25.53;15.10;;;13.10;99.90;;;;;;5049038;28;20517;-69
2022/10/30 02:37:48;;;;;;;15.93;14.03;;;13.00;99.90;;;;;;5043860;28;20624;-69
2022/10/30 02:40:16;;;;;;;19.33;14.50;;;13.00;99.90;;;;;;5047343;28;20472;-69
2022/10/30 02:42:43;;;;;;;28.13;16.50;;;12.90;99.90;;;;;;5047520;28;20463;-69
2022/10/30 02:45:11;;;;;;;17.50;15.80;;;12.90;99.90;;;;;;5048784;28;20483;-70
2022/10/30 02:47:38;;;;;;;28.23;16.03;;;12.90;99.90;;;;;;5047765;28;20464;-71
2022/10/30 02:50:06;;;;;;;19.07;14.27;;;12.80;99.90;;;;;;5046484;28;20471;-68
2022/10/30 02:52:33;;;;;;;19.70;14.83;;;12.70;99.90;;;;;;5049401;28;20460;-68
2022/10/30 02:55:01;;;;;;;14.83;13.50;;;12.80;99.90;;;;;;5048259;28;20491;-68
2022/10/30 02:57:28;;;;;;;15.37;13.87;;;12.80;99.90;;;;;;5044611;28;20460;-70
2022/10/30 02:59:55;;;;;;;25.80;15.17;;;12.70;99.90;;;;;;5048101;28;21024;-68
2022/10/30 03:02:21;;;;;;;27.90;15.50;;;12.70;99.90;;;;;;5045457;28;20903;-67
2022/10/30 03:04:48;;;;;;;24.37;15.00;;;12.60;99.90;;;;;;5046347;28;20869;-70
2022/10/30 03:07:16;;;;;;;23.80;15.27;;;12.70;99.90;;;;;;5045592;28;20464;-68
2022/10/30 03:09:44;;;;;;;33.60;15.27;;;12.80;99.90;;;;;;5048074;28;20459;-68
2022/10/30 03:12:12;;;;;;;17.10;14.37;;;12.70;99.90;;;;;;5047455;28;20471;-68
2022/10/30 03:14:39;;;;;;;22.13;15.53;;;12.60;99.90;;;;;;5048809;28;20507;-69
2022/10/30 03:17:06;;;;;;;21.47;16.40;;;12.50;99.90;;;;;;5048184;28;20470;-68
2022/10/30 03:19:32;;;;;;;24.77;15.50;;;12.50;99.90;;;;;;5046791;28;20850;-68
2022/10/30 03:22:00;;;;;;;23.90;16.37;;;12.40;99.90;;;;;;5046439;28;20865;-68
2022/10/30 03:24:27;;;;;;;17.83;15.90;;;12.40;99.90;;;;;;5047705;28;20541;-69
2022/10/30 03:26:54;;;;;;;21.03;14.20;;;12.30;99.90;;;;;;5048007;28;20474;-68
2022/10/30 03:29:23;;;;;;;15.97;14.30;;;12.20;99.90;;;;;;5049094;28;20813;-67
2022/10/30 03:31:50;;;;;;;18.13;15.70;;;12.20;99.90;;;;;;5042155;28;20475;-69
2022/10/30 03:34:18;;;;;;;29.97;16.80;;;12.10;99.90;;;;;;5041825;28;20909;-70
2022/10/30 03:36:44;;;;;;;19.10;15.57;;;12.10;99.90;;;;;;5047703;28;20486;-68
2022/10/30 03:39:11;;;;;;;21.80;15.30;;;12.10;99.90;;;;;;5049177;28;20464;-71
2022/10/30 03:41:38;;;;;;;18.50;15.40;;;12.00;99.90;;;;;;5047869;28;20818;-68
2022/10/30 03:44:05;;;;;;;22.83;15.30;;;12.00;99.90;;;;;;5047404;28;20467;-70
2022/10/30 03:46:34;;;;;;;17.40;15.50;;;11.90;99.90;;;;;;5046588;28;20475;-68
2022/10/30 03:49:02;;;;;;;19.77;16.30;;;11.90;99.90;;;;;;5042295;28;20459;-70
2022/10/30 03:51:28;;;;;;;20.37;15.90;;;11.90;99.90;;;;;;5044506;28;20485;-68
2022/10/30 03:53:55;;;;;;;17.80;15.40;;;11.90;99.90;;;;;;5046217;28;20557;-70
2022/10/30 03:56:23;;;;;;;18.70;15.57;;;11.90;99.90;;;;;;5046294;28;20472;-70
2022/10/30 03:58:50;;;;;;;17.00;15.60;;;12.00;99.90;;;;;;5047224;28;20971;-70
2022/10/30 04:01:17;;;;;;;17.67;15.97;;;12.00;99.90;;;;;;5042981;28;20535;-68
2022/10/30 04:03:45;;;;;;;20.60;16.13;;;12.00;99.90;;;;;;5046305;28;20464;-68
2022/10/30 04:06:12;;;;;;;17.07;15.43;;;12.00;99.90;;;;;;5047192;28;20916;-70
2022/10/30 04:08:40;;;;;;;18.13;14.97;;;11.90;99.90;;;;;;5046805;28;20593;-70
2022/10/30 04:11:10;;;;;;;19.87;15.33;;;11.90;99.90;;;;;;5044955;28;20470;-69
2022/10/30 04:13:38;;;;;;;18.50;16.63;;;11.80;99.90;;;;;;5048195;28;20575;-68
2022/10/30 04:16:06;;;;;;;20.00;16.57;;;11.80;99.90;;;;;;5045107;28;20526;-69
2022/10/30 04:18:33;;;;;;;19.43;15.27;;;11.70;99.90;;;;;;5046414;28;20487;-68
2022/10/30 04:21:01;;;;;;;17.30;15.70;;;11.70;99.90;;;;;;5044100;28;20472;-68
2022/10/30 04:23:29;;;;;;;17.50;15.60;;;11.70;99.90;;;;;;5046359;28;20456;-69
2022/10/30 04:25:59;;;;;;;23.47;16.83;;;11.70;99.90;;;;;;5046035;28;20467;-67
2022/10/30 04:28:27;;;;;;;17.60;16.00;;;11.70;99.90;;;;;;5046853;28;20491;-67
2022/10/30 04:30:54;;;;;;;22.23;16.80;;;11.70;99.90;;;;;;5044186;28;21091;-67
2022/10/30 04:33:20;;;;;;;18.23;16.13;;;11.80;99.90;;;;;;5046017;28;20470;-69
2022/10/30 04:35:48;;;;;;;19.13;15.40;;;11.90;99.90;;;;;;5044372;28;20473;-69
2022/10/30 04:38:18;;;;;;;18.67;16.50;;;12.00;99.90;;;;;;5046492;28;20866;-68
2022/10/30 04:40:45;;;;;;;17.47;15.67;;;12.00;99.90;;;;;;5038608;28;20526;-69
2022/10/30 04:43:12;;;;;;;27.43;16.60;;;11.90;99.90;;;;;;5048372;28;20522;-68
2022/10/30 04:45:40;;;;;;;19.73;16.37;;;11.80;99.90;;;;;;5043479;28;20456;-67
2022/10/30 04:48:10;;;;;;;20.07;15.97;;;11.80;99.90;;;;;;5045564;28;20590;-68
2022/10/30 04:50:37;;;;;;;17.03;15.43;;;11.80;99.90;;;;;;5046416;28;20467;-69
2022/10/30 04:53:06;;;;;;;21.47;16.60;;;11.70;99.90;;;;;;5045050;28;20499;-68
2022/10/30 04:55:34;;;;;;;23.07;17.00;;;11.60;99.90;;;;;;5046648;28;20503;-68
2022/10/30 04:58:02;;;;;;;20.90;16.77;;;11.70;99.90;;;;;;5044539;28;20523;-68
2022/10/30 05:00:29;;;;;;;30.20;18.07;;;11.70;99.90;;;;;;5045529;28;20495;-68
2022/10/30 05:02:58;;;;;;;21.67;15.80;;;11.70;99.90;;;;;;5036880;28;20472;-68
2022/10/30 05:05:25;;;;;;;20.37;16.77;;;11.80;99.90;;;;;;5042520;28;20551;-69
2022/10/30 05:07:52;;;;;;;19.23;16.47;;;11.70;99.90;;;;;;5046374;28;20541;-68
2022/10/30 05:10:19;;;;;;;18.53;16.60;;;11.60;99.90;;;;;;5043124;28;20472;-68
2022/10/30 05:12:47;;;;;;;29.87;17.40;;;11.50;99.90;;;;;;5040870;28;21010;-71
2022/10/30 05:15:14;;;;;;;18.07;16.13;;;11.50;99.90;;;;;;5044255;28;20549;-67
2022/10/30 05:17:41;;;;;;;26.30;16.07;;;11.60;99.90;;;;;;5044163;28;20467;-67
2022/10/30 05:20:10;;;;;;;19.63;17.13;;;11.50;99.90;;;;;;5045936;28;20971;-67
2022/10/30 05:22:37;;;;;;;17.97;16.33;;;11.50;99.90;;;;;;5044892;28;20890;-67
2022/10/30 05:25:04;;;;;;;27.50;17.90;;;11.40;99.90;;;;;;5039049;28;20519;-70
2022/10/30 05:27:31;;;;;;;21.87;18.43;;;11.40;99.90;;;;;;5040786;28;20464;-68
2022/10/30 05:30:00;;;;;;;19.40;16.40;;;11.40;99.90;;;;;;5040153;28;20507;-67
2022/10/30 05:32:26;;;;;;;21.97;17.10;;;11.40;99.90;;;;;;5043604;28;20518;-67
2022/10/30 05:34:53;;;;;;;24.73;15.50;;;11.30;99.90;;;;;;5045970;28;20540;-68
2022/10/30 05:37:20;;;;;;;17.53;15.83;;;11.20;99.90;;;;;;5046869;28;20490;-67
2022/10/30 05:39:47;;;;;;;31.00;16.73;;;11.10;99.90;;;;;;5037693;28;20959;-69
2022/10/30 05:42:14;;;;;;;20.53;15.50;;;11.10;99.90;;;;;;5047770;28;20460;-67
2022/10/30 05:44:41;;;;;;;19.97;15.37;;;11.10;99.90;;;;;;5047402;28;20562;-70
2022/10/30 05:47:11;;;;;;;18.97;16.13;;;11.00;99.90;;;;;;5050267;28;20865;-68
2022/10/30 05:49:38;;;;;;;20.67;16.47;;;11.00;99.90;;;;;;5049004;28;20459;-68
2022/10/30 05:52:04;;;;;;;18.97;16.37;;;11.00;99.90;;;;;;5046555;28;20459;-68
2022/10/30 05:54:31;;;;;;;17.60;15.90;;;11.00;99.90;;;;;;5047368;28;20764;-69
2022/10/30 05:56:58;;;;;;;17.03;15.37;;;11.00;99.90;;;;;;5045415;28;20459;-67
2022/10/30 05:59:25;;;;;;;22.63;17.77;;;11.10;99.90;;;;;;5047681;28;20471;-67
2022/10/30 06:01:52;;;;;;;18.00;16.37;;;11.00;99.90;;;;;;5047722;28;20466;-69
2022/10/30 06:04:20;;;;;;;19.60;15.97;;;11.00;99.90;;;;;;5047296;28;20541;-70
2022/10/30 06:06:47;;;;;;;23.30;17.73;;;11.10;99.90;;;;;;5045850;28;20930;-68
2022/10/30 06:09:14;;;;;;;18.40;16.50;;;11.00;99.90;;;;;;5048043;28;20869;-70
2022/10/30 06:11:41;;;;;;;21.87;17.00;;;11.10;99.90;;;;;;5044940;28;20456;-67
2022/10/30 06:14:07;;;;;;;20.83;17.33;;;11.10;99.90;;;;;;5049589;28;20872;-68
2022/10/30 06:16:34;;;;;;;20.47;16.63;;;11.00;99.90;;;;;;5048540;28;21440;-67
2022/10/30 06:19:02;;;;;;;19.70;17.10;;;11.00;99.90;;;;;;5047783;28;20521;-68
2022/10/30 06:21:30;;;;;;;25.37;16.07;;;11.00;99.90;;;;;;5045822;28;20468;-68
2022/10/30 06:23:58;;;;;;;31.53;16.87;;;11.00;99.90;;;;;;5047449;28;20938;-68
2022/10/30 06:26:25;;;;;;;21.07;16.67;;;11.00;99.90;;;;;;5045587;28;20471;-69
2022/10/30 06:28:52;;;;;;;28.33;18.20;;;11.00;99.90;;;;;;5048360;28;20479;-67
2022/10/30 06:31:18;;;;;;;18.87;16.47;;;11.00;99.90;;;;;;5047461;28;21025;-69
2022/10/30 06:33:45;;;;;;;17.97;16.00;;;11.00;99.90;;;;;;5046131;28;20994;-67
2022/10/30 06:36:12;;;;;;;20.10;17.87;;;10.90;99.90;;;;;;5046636;28;20565;-66
2022/10/30 06:38:40;;;;;;;21.73;16.60;;;10.90;99.90;;;;;;5045824;28;20466;-67
2022/10/30 06:41:07;;;;;;;26.70;18.20;;;10.80;99.90;;;;;;5046633;28;20529;-67
2022/10/30 06:43:35;;;;;;;20.13;17.23;;;10.80;99.90;;;;;;5048362;28;20529;-67
2022/10/30 06:46:03;;;;;;;26.50;17.63;;;10.80;99.90;;;;;;5040104;28;20555;-68
2022/10/30 06:48:29;;;;;;;23.50;17.00;;;10.80;99.90;;;;;;5042559;28;20459;-67
2022/10/30 06:50:57;;;;;;;21.70;16.63;;;10.80;99.90;;;;;;5047103;28;20819;-68
2022/10/30 06:53:24;;;;;;;22.40;16.80;;;10.90;99.90;;;;;;5047605;28;20459;-70
2022/10/30 06:55:58;;;;;;;18.97;16.97;;;10.90;99.90;;;;;;5048328;28;20497;-68
2022/10/30 06:58:25;;;;;;;25.33;17.67;;;10.90;99.90;;;;;;5045268;28;20468;-67
2022/10/30 07:00:52;;;;;;;29.67;18.00;;;11.00;99.90;;;;;;5042969;28;20467;-67
2022/10/30 07:03:21;;;;;;;40.30;18.30;;;11.10;99.90;;;;;;5043518;28;20733;-68
2022/10/30 07:05:47;;;;;;;23.33;17.30;;;11.20;99.90;;;;;;5042683;28;20588;-68
2022/10/30 07:08:15;;;;;;;24.30;18.60;;;11.30;99.90;;;;;;5047946;28;20970;-68
2022/10/30 07:10:42;;;;;;;31.30;19.10;;;11.40;99.90;;;;;;5050690;28;20546;-67
2022/10/30 07:13:10;;;;;;;34.00;18.57;;;11.50;99.90;;;;;;5046119;28;20459;-68
2022/10/30 07:15:37;;;;;;;29.90;18.20;;;11.70;99.90;;;;;;5042064;28;20552;-69
2022/10/30 07:18:04;;;;;;;34.83;19.83;;;11.70;99.90;;;;;;5042507;28;20456;-67
2022/10/30 07:20:33;;;;;;;33.63;17.60;;;11.90;99.90;;;;;;5042906;28;20898;-67
2022/10/30 07:23:00;;;;;;;29.00;18.77;;;12.00;99.90;;;;;;5041406;28;20804;-67
2022/10/30 07:25:27;;;;;;;27.00;19.67;;;12.10;99.90;;;;;;5048088;28;20554;-68
2022/10/30 07:27:56;;;;;;;40.83;19.77;;;12.10;99.90;;;;;;5041986;28;20793;-68
2022/10/30 07:30:25;;;;;;;32.83;18.53;;;12.20;99.90;;;;;;5046265;28;20987;-67
2022/10/30 07:32:59;;;;;;;26.53;18.53;;;12.30;99.90;;;;;;5044036;28;20481;-70
2022/10/30 07:35:27;;;;;;;32.30;18.97;;;12.30;99.90;;;;;;5042926;28;20499;-68
2022/10/30 07:37:54;;;;;;;36.90;18.73;;;12.40;99.90;;;;;;5042943;28;20843;-67
2022/10/30 07:40:22;;;;;;;36.67;20.03;;;12.50;99.90;;;;;;5043334;28;20468;-67
2022/10/30 07:42:49;;;;;;;32.40;19.30;;;12.50;99.90;;;;;;5043618;28;20462;-67
2022/10/30 07:45:16;;;;;;;28.90;18.60;;;12.60;99.90;;;;;;5041888;28;20468;-67
2022/10/30 07:47:44;;;;;;;24.47;17.67;;;12.60;99.90;;;;;;5038269;28;20521;-67
2022/10/30 07:50:11;;;;;;;26.33;18.80;;;12.60;99.90;;;;;;5039723;28;20465;-68
2022/10/30 07:52:39;;;;;;;24.17;15.90;;;12.70;99.90;;;;;;5039597;28;20966;-71
2022/10/30 07:55:07;;;;;;;24.93;17.80;;;12.80;99.90;;;;;;5044627;28;20496;-71
2022/10/30 07:57:36;;;;;;;17.53;14.43;;;13.00;99.90;;;;;;5041260;28;20506;-68
2022/10/30 08:00:06;;;;;;;17.70;14.97;;;13.10;99.90;;;;;;5044778;28;20561;-68
2022/10/30 08:02:33;;;;;;;24.40;15.97;;;13.30;99.90;;;;;;5043733;28;20525;-67
2022/10/30 08:05:01;;;;;;;25.93;14.87;;;13.40;99.90;;;;;;5047225;28;20986;-67
2022/10/30 08:07:32;;;;;;;19.33;14.60;;;13.50;99.90;;;;;;5045235;28;20525;-68
2022/10/30 08:09:59;;;;;;;35.93;14.97;;;13.60;99.90;;;;;;5045178;28;20505;-70
2022/10/30 08:12:26;;;;;;;30.73;15.50;;;13.70;99.90;;;;;;5042780;28;20457;-68
2022/10/30 08:14:53;;;;;;;27.60;15.00;;;13.80;99.90;;;;;;5041580;28;20816;-67
2022/10/30 08:17:20;;;;;;;22.37;15.57;;;13.80;99.90;;;;;;5044514;28;20483;-68
2022/10/30 08:19:48;;;;;;;35.67;15.63;;;13.90;99.90;;;;;;5044188;28;20511;-68
2022/10/30 08:22:17;;;;;;;22.40;14.30;;;14.00;99.90;;;;;;5043259;28;20455;-67
2022/10/30 08:24:44;;;;;;;16.67;15.03;;;14.10;99.90;;;;;;5042089;28;20464;-70
2022/10/30 08:27:11;;;;;;;21.80;15.33;;;14.30;99.90;;;;;;5044925;28;20475;-68
2022/10/30 08:29:37;;;;;;;21.60;14.13;;;14.50;99.90;;;;;;5044192;28;20487;-67
2022/10/30 08:32:05;;;;;;;32.03;15.87;;;14.60;99.90;;;;;;5044694;28;20580;-68
2022/10/30 08:34:33;;;;;;;21.90;14.93;;;14.70;99.90;;;;;;5043111;28;20464;-67
2022/10/30 08:37:00;;;;;;;18.50;14.50;;;14.90;99.90;;;;;;5042161;28;20464;-67
2022/10/30 08:39:29;;;;;;;18.43;14.43;;;15.00;99.90;;;;;;5040882;28;20989;-66
2022/10/30 08:41:59;;;;;;;20.33;13.83;;;15.30;99.90;;;;;;5042620;28;20475;-68
2022/10/30 08:44:26;;;;;;;16.90;14.27;;;15.40;99.90;;;;;;5044639;28;20466;-67
2022/10/30 08:46:54;;;;;;;29.23;14.77;;;15.40;99.90;;;;;;5044812;28;20529;-67
2022/10/30 08:49:21;;;;;;;21.77;14.50;;;15.60;99.90;;;;;;5044551;28;20530;-68
2022/10/30 08:51:48;;;;;;;20.57;13.43;;;15.70;99.90;;;;;;5039891;28;20470;-69
2022/10/30 08:54:16;;;;;;;29.90;15.20;;;15.80;99.90;;;;;;5040199;28;20460;-69
2022/10/30 08:56:44;;;;;;;24.40;15.73;;;16.00;99.90;;;;;;5040365;28;20577;-70
2022/10/30 08:59:10;;;;;;;16.77;14.00;;;16.00;99.90;;;;;;5040978;28;20813;-67
2022/10/30 09:01:38;;;;;;;17.50;14.07;;;16.10;99.90;;;;;;5046525;28;20463;-67
2022/10/30 09:04:06;;;;;;;16.83;14.40;;;16.20;99.90;;;;;;5040418;28;20486;-70
2022/10/30 09:06:33;;;;;;;17.27;14.60;;;16.30;99.90;;;;;;5047366;28;20474;-67
2022/10/30 09:09:00;;;;;;;20.00;15.57;;;16.50;99.90;;;;;;5041094;28;20465;-68
2022/10/30 09:11:27;;;;;;;25.17;13.67;;;16.70;99.90;;;;;;5042455;28;20468;-69
2022/10/30 09:13:55;;;;;;;17.43;15.10;;;16.90;99.90;;;;;;5037667;28;20452;-70
2022/10/30 09:16:22;;;;;;;33.97;14.80;;;16.90;99.90;;;;;;5036767;28;21000;-68
2022/10/30 09:18:49;;;;;;;18.30;14.00;;;17.00;99.90;;;;;;5031742;28;20876;-70
2022/10/30 09:21:16;;;;;;;26.77;15.37;;;17.10;99.90;;;;;;5036714;28;20876;-68
2022/10/30 09:23:43;;;;;;;22.33;14.40;;;17.00;99.90;;;;;;5040277;28;20507;-67
2022/10/30 09:26:10;;;;;;;20.67;15.13;;;17.10;99.90;;;;;;5042676;28;20556;-68
2022/10/30 09:28:37;;;;;;;21.03;15.10;;;17.30;99.90;;;;;;5044344;28;20479;-69
2022/10/30 09:31:06;;;;;;;17.93;13.70;;;17.40;99.90;;;;;;5042902;28;20545;-68
2022/10/30 09:33:32;;;;;;;19.50;14.93;;;17.50;99.90;;;;;;5043090;28;20775;-68
2022/10/30 09:36:01;;;;;;;20.73;14.47;;;17.60;99.90;;;;;;5046340;28;20483;-68
2022/10/30 09:38:28;;;;;;;22.10;13.50;;;17.80;99.90;;;;;;5045066;28;20548;-69
2022/10/30 09:41:17;;;;;;;17.40;14.90;;;18.00;99.90;;;;;;5039420;28;20951;-68
2022/10/30 09:43:59;;;;;;;23.53;16.40;;;18.30;99.90;;;;;;5036121;28;20471;-69
2022/10/30 09:46:42;;;;;;;28.40;15.30;;;18.40;99.90;;;;;;5037986;28;20463;-71
2022/10/30 09:49:22;;;;;;;27.63;14.70;;;18.40;99.90;;;;;;5038918;28;21017;-68
2022/10/30 09:52:27;;;;;;;21.40;14.87;;;18.60;99.90;;;;;;5041430;28;20470;-68
2022/10/30 09:55:15;;;;;;;25.30;14.60;;;18.80;99.90;;;;;;5037261;28;20463;-69
2022/10/30 09:57:47;;;;;;;26.47;15.67;;;18.80;99.90;;;;;;5037754;28;20529;-68
2022/10/30 10:00:17;;;;;;;26.03;15.27;;;18.90;99.90;;;;;;5040862;28;20592;-68
2022/10/30 10:02:55;;;;;;;18.20;15.37;;;19.00;99.90;;;;;;5038187;28;20456;-68
2022/10/30 10:05:25;;;;;;;23.23;15.63;;;19.20;99.90;;;;;;5042608;28;20559;-68
2022/10/30 10:07:57;;;;;;;22.90;14.93;;;19.30;99.90;;;;;;5037868;28;20471;-69
2022/10/30 10:10:35;;;;;;;18.50;15.00;;;19.40;99.90;;;;;;5042544;28;20464;-69
2022/10/30 10:13:04;;;;;;;17.10;14.73;;;19.50;99.90;;;;;;5037949;28;20861;-69
2022/10/30 10:15:39;;;;;;;19.03;15.10;;;19.80;99.90;;;;;;5041971;28;20556;-69
2022/10/30 10:18:16;;;;;;;27.73;15.07;;;20.10;99.90;;;;;;5042813;28;20460;-70
2022/10/30 10:20:48;;;;;;;20.87;15.67;;;20.70;99.90;;;;;;5038036;28;21267;-70
2022/10/30 10:23:19;;;;;;;16.30;14.60;;;21.30;99.90;;;;;;5042417;28;20464;-69
2022/10/30 10:25:52;;;;;;;22.33;14.60;;;21.80;99.90;;;;;;5042433;28;20467;-68
2022/10/30 10:28:37;;;;;;;23.53;15.73;;;22.20;99.90;;;;;;5044332;28;20511;-68
2022/10/30 10:31:13;;;;;;;24.80;15.33;;;22.10;99.90;;;;;;5044630;28;20896;-68
2022/10/30 10:33:55;;;;;;;24.50;15.20;;;22.40;99.90;;;;;;5045074;28;20459;-70
2022/10/30 10:36:34;;;;;;;16.90;15.30;;;22.80;99.90;;;;;;5042222;28;20491;-68
2022/10/30 10:39:17;;;;;;;19.57;15.57;;;23.10;99.90;;;;;;5037654;28;21541;-68
2022/10/30 10:41:58;;;;;;;25.40;16.97;;;23.20;99.90;;;;;;5036218;28;20472;-69
2022/10/30 10:44:39;;;;;;;20.00;15.77;;;23.40;99.90;;;;;;5045191;28;21005;-68
2022/10/30 10:47:18;;;;;;;23.53;15.57;;;23.30;99.90;;;;;;5044807;28;20471;-69
2022/10/30 10:50:03;;;;;;;21.73;14.90;;;23.40;99.90;;;;;;5041968;28;20467;-69
2022/10/30 10:52:38;;;;;;;22.30;15.73;;;23.50;99.90;;;;;;5045036;28;21030;-69
2022/10/30 10:55:12;;;;;;;22.77;15.27;;;23.60;99.90;;;;;;5045529;28;20491;-69
2022/10/30 10:57:41;;;;;;;16.80;15.03;;;24.00;99.90;;;;;;5038599;28;20499;-69
2022/10/30 11:00:14;;;;;;;20.83;15.87;;;24.60;99.90;;;;;;5041161;28;20824;-69
2022/10/30 11:02:45;;;;;;;16.73;15.00;;;24.50;99.90;;;;;;5039662;28;20460;-69
2022/10/30 11:05:24;;;;;;;17.20;15.53;;;24.60;99.90;;;;;;5040791;28;20461;-71
2022/10/30 11:07:51;;;;;;;22.20;16.07;;;24.60;99.90;;;;;;5046288;28;20470;-69
2022/10/30 11:10:20;;;;;;;21.50;17.20;;;24.70;99.90;;;;;;5042386;28;20456;-71
2022/10/30 11:12:48;;;;;;;17.23;15.60;;;25.00;99.90;;;;;;5040293;28;20495;-70
2022/10/30 11:15:36;;;;;;;18.13;15.97;;;25.10;99.90;;;;;;5037647;28;20471;-69
2022/10/30 11:18:05;;;;;;;23.40;15.53;;;25.30;99.90;;;;;;5045653;28;20471;-69
2022/10/30 11:20:41;;;;;;;17.80;15.57;;;25.20;99.90;;;;;;5045763;28;20472;-69
2022/10/30 11:23:30;;;;;;;19.30;16.57;;;25.40;99.90;;;;;;5044487;28;20491;-71
2022/10/30 11:25:57;;;;;;;17.10;15.40;;;25.30;99.90;;;;;;5044467;28;20518;-69
2022/10/30 11:28:35;;;;;;;19.30;16.43;;;25.30;99.90;;;;;;5043871;28;20492;-69
2022/10/30 11:31:18;;;;;;;20.57;17.53;;;25.70;99.90;;;;;;5041427;28;20496;-70
2022/10/30 11:33:45;;;;;;;19.67;15.40;;;25.90;99.90;;;;;;5045327;28;21049;-69
2022/10/30 11:36:16;;;;;;;25.27;18.37;;;25.80;99.90;;;;;;5040998;28;20538;-69
2022/10/30 11:38:42;;;;;;;18.70;16.80;;;25.70;99.90;;;;;;5040263;28;20462;-71
2022/10/30 11:41:10;;;;;;;20.07;17.93;;;25.60;99.90;;;;;;5045174;28;20467;-70
2022/10/30 11:43:39;;;;;;;19.50;16.47;;;25.80;99.90;;;;;;5041079;28;20613;-69
2022/10/30 11:46:08;;;;;;;21.43;16.53;;;25.80;99.90;;;;;;5042551;28;20960;-70
2022/10/30 11:48:38;;;;;;;19.03;17.00;;;25.60;99.90;;;;;;5042717;28;20464;-69
2022/10/30 11:51:05;;;;;;;27.93;17.20;;;25.70;99.90;;;;;;5035845;28;20966;-69
2022/10/30 11:53:38;;;;;;;18.13;16.20;;;25.50;99.90;;;;;;5044293;28;20938;-69
2022/10/30 11:56:14;;;;;;;18.93;16.37;;;25.50;99.90;;;;;;5043269;28;20484;-71
2022/10/30 11:58:45;;;;;;;25.30;16.27;;;25.90;99.90;;;;;;5042756;28;20690;-71
2022/10/30 12:01:17;;;;;;;17.80;16.10;;;26.10;99.90;;;;;;5040569;28;20480;-70
2022/10/30 12:03:44;;;;;;;21.13;17.13;;;26.10;99.90;;;;;;5044873;28;20452;-70
2022/10/30 12:06:16;;;;;;;22.83;17.27;;;26.50;99.90;;;;;;5045721;28;20474;-69
2022/10/30 12:09:00;;;;;;;20.10;16.20;;;26.40;99.90;;;;;;5043615;28;20958;-69
2022/10/30 12:11:30;;;;;;;19.50;15.80;;;26.40;99.90;;;;;;5042898;28;20507;-69
2022/10/30 12:13:57;;;;;;;20.70;15.37;;;26.30;99.90;;;;;;5039023;28;20885;-71
2022/10/30 12:16:25;;;;;;;26.63;16.87;;;26.30;99.90;;;;;;5041012;28;20837;-70
2022/10/30 12:18:58;;;;;;;19.30;16.60;;;26.50;99.90;;;;;;5045352;28;20456;-69
2022/10/30 12:21:25;;;;;;;17.10;15.60;;;26.70;99.90;;;;;;5042181;28;20460;-69
2022/10/30 12:24:00;;;;;;;19.20;16.10;;;26.70;99.90;;;;;;5041949;28;20463;-69
2022/10/30 12:26:29;;;;;;;18.70;16.87;;;27.10;99.90;;;;;;5044461;28;20471;-70
2022/10/30 12:28:59;;;;;;;23.80;17.30;;;27.00;99.90;;;;;;5043017;28;21456;-71
2022/10/30 12:31:35;;;;;;;20.93;17.00;;;26.90;99.90;;;;;;5042434;28;22508;-69
2022/10/30 12:34:15;;;;;;;17.63;15.87;;;26.80;99.90;;;;;;5041923;28;21467;-70
2022/10/30 12:36:47;;;;;;;22.37;16.93;;;26.70;99.90;;;;;;5044571;28;20500;-70
2022/10/30 12:39:21;;;;;;;18.90;16.50;;;26.60;99.90;;;;;;5043970;28;20460;-70
2022/10/30 12:41:57;;;;;;;20.20;17.03;;;26.50;99.90;;;;;;5043884;28;20455;-70